createdAt,value
2024-01-03T00:00:01.016Z,3.84
2024-01-03T00:02:28.429Z,3.75
2024-01-03T00:04:55.842Z,3.64
2024-01-03T00:07:23.115Z,3.51
2024-01-03T00:09:54.817Z,3.48
2024-01-03T00:12:22.985Z,3.54
2024-01-03T00:14:50.739Z,3.29
2024-01-03T00:17:18.357Z,3.48
2024-01-03T00:19:45.687Z,3.57
2024-01-03T00:22:13.380Z,3.73
2024-01-03T00:24:48.420Z,3.74
2024-01-03T00:27:16.535Z,3.73
2024-01-03T00:29:49.059Z,3.64
2024-01-03T00:32:16.420Z,3.58
2024-01-03T00:34:45.698Z,3.72
2024-01-03T00:37:19.116Z,3.70
2024-01-03T00:39:46.394Z,3.43
2024-01-03T00:42:13.640Z,3.46
2024-01-03T00:44:40.858Z,3.61
2024-01-03T00:47:08.113Z,3.52
2024-01-03T00:49:36.397Z,3.39
2024-01-03T00:52:03.934Z,3.38
2024-01-03T00:54:32.279Z,3.53
2024-01-03T00:57:00.634Z,3.39
2024-01-03T00:59:28.851Z,3.34
2024-01-03T01:01:56.174Z,3.34
2024-01-03T01:04:23.562Z,3.46
2024-01-03T01:06:50.920Z,3.26
2024-01-03T01:09:18.170Z,3.09
2024-01-03T01:11:45.513Z,3.16
2024-01-03T01:14:12.849Z,3.17
2024-01-03T01:16:40.154Z,3.11
2024-01-03T01:19:07.492Z,3.05
2024-01-03T01:21:34.772Z,3.13
2024-01-03T01:24:02.136Z,3.12
2024-01-03T01:26:29.481Z,3.11
2024-01-03T01:28:56.781Z,3.26
2024-01-03T01:31:24.175Z,3.30
2024-01-03T01:33:51.707Z,3.31
2024-01-03T01:36:19.080Z,3.27
2024-01-03T01:38:46.387Z,3.42
2024-01-03T01:41:13.656Z,3.53
2024-01-03T01:43:41.049Z,3.37
2024-01-03T01:46:09.019Z,3.14
2024-01-03T01:48:36.920Z,3.09
2024-01-03T01:51:04.718Z,3.17
2024-01-03T01:53:32.282Z,3.02
2024-01-03T01:56:00.011Z,3.09
2024-01-03T01:58:27.522Z,3.02
2024-01-03T02:00:54.898Z,3.07
2024-01-03T02:03:23.430Z,3.09
2024-01-03T02:05:51.097Z,3.08
2024-01-03T02:08:19.229Z,2.93
2024-01-03T02:10:46.521Z,2.96
2024-01-03T02:13:13.817Z,3.07
2024-01-03T02:15:41.219Z,2.98
2024-01-03T02:18:09.243Z,2.92
2024-01-03T02:20:37.775Z,2.79
2024-01-03T02:23:05.456Z,2.93
2024-01-03T02:25:33.122Z,3.06
2024-01-03T02:28:02.662Z,2.82
2024-01-03T02:30:33.059Z,2.81
2024-01-03T02:33:00.789Z,3.10
2024-01-03T02:35:28.258Z,3.06
2024-01-03T02:37:55.625Z,2.96
2024-01-03T02:40:23.046Z,2.92
2024-01-03T02:42:50.441Z,3.03
2024-01-03T02:45:17.710Z,3.18
2024-01-03T02:47:44.946Z,3.18
2024-01-03T02:50:12.390Z,3.09
2024-01-03T02:52:39.716Z,3.18
2024-01-03T02:55:07.260Z,3.09
2024-01-03T02:57:37.038Z,3.08
2024-01-03T03:00:04.808Z,3.05
2024-01-03T03:02:32.102Z,2.96
2024-01-03T03:04:59.413Z,3.01
2024-01-03T03:07:26.624Z,2.99
2024-01-03T03:09:53.917Z,2.91
2024-01-03T03:12:21.111Z,2.75
2024-01-03T03:14:48.520Z,2.78
2024-01-03T03:17:15.878Z,2.77
2024-01-03T03:19:43.264Z,2.76
2024-01-03T03:22:10.566Z,2.89
2024-01-03T03:24:37.863Z,2.97
2024-01-03T03:27:05.243Z,3.12
2024-01-03T03:29:32.468Z,2.91
2024-01-03T03:31:59.700Z,3.01
2024-01-03T03:34:27.019Z,2.97
2024-01-03T03:36:54.305Z,2.97
2024-01-03T03:39:21.522Z,2.85
2024-01-03T03:41:48.764Z,3.05
2024-01-03T03:44:16.089Z,2.99
2024-01-03T03:46:43.442Z,2.97
2024-01-03T03:49:10.984Z,2.86
2024-01-03T03:51:38.304Z,2.87
2024-01-03T03:54:05.563Z,2.96
2024-01-03T03:56:32.778Z,2.89
2024-01-03T03:59:00.046Z,2.97
2024-01-03T04:01:27.283Z,3.07
2024-01-03T04:03:54.568Z,3.05
2024-01-03T04:06:21.939Z,3.00
2024-01-03T04:08:50.324Z,3.00
2024-01-03T04:11:17.886Z,2.91
2024-01-03T04:13:45.282Z,2.94
2024-01-03T04:16:12.677Z,2.99
2024-01-03T04:18:40.178Z,3.08
2024-01-03T04:21:07.559Z,3.14
2024-01-03T04:23:34.973Z,3.25
2024-01-03T04:26:02.383Z,3.39
2024-01-03T04:28:30.129Z,3.30
2024-01-03T04:31:00.897Z,3.33
2024-01-03T04:33:31.480Z,8.21
2024-01-03T04:35:59.130Z,8.66
2024-01-03T04:38:26.510Z,9.59
2024-01-03T04:40:54.750Z,10.19
2024-01-03T04:43:22.099Z,10.21
2024-01-03T04:45:49.413Z,7.36
2024-01-03T04:48:20.002Z,5.29
2024-01-03T04:50:47.311Z,4.25
2024-01-03T04:53:14.711Z,7.32
2024-01-03T04:55:42.125Z,6.07
2024-01-03T04:58:09.582Z,5.22
2024-01-03T05:00:37.013Z,4.93
2024-01-03T05:03:07.324Z,8.94
2024-01-03T05:05:34.733Z,9.19
2024-01-03T05:08:02.058Z,9.84
2024-01-03T05:10:32.586Z,8.62
2024-01-03T05:12:59.873Z,5.71
2024-01-03T05:15:30.080Z,4.80
2024-01-03T05:17:57.645Z,4.10
2024-01-03T05:20:25.154Z,3.66
2024-01-03T05:22:58.004Z,3.41
2024-01-03T05:25:26.327Z,3.41
2024-01-03T05:27:57.182Z,3.38
2024-01-03T05:30:24.615Z,3.56
2024-01-03T05:32:52.080Z,3.36
2024-01-03T05:35:22.838Z,3.17
2024-01-03T05:37:52.878Z,3.20
2024-01-03T05:40:23.120Z,3.22
2024-01-03T05:42:53.552Z,3.00
2024-01-03T05:45:23.664Z,2.93
2024-01-03T05:47:51.919Z,3.23
2024-01-03T05:50:27.685Z,3.28
2024-01-03T05:52:54.799Z,3.52
2024-01-03T05:55:21.916Z,3.35
2024-01-03T05:57:57.557Z,3.20
2024-01-03T06:00:24.890Z,3.20
2024-01-03T06:02:55.614Z,3.04
2024-01-03T06:05:26.113Z,3.09
2024-01-03T06:08:01.383Z,3.17
2024-01-03T06:10:32.759Z,3.36
2024-01-03T06:13:09.278Z,3.57
2024-01-03T06:15:48.146Z,3.40
2024-01-03T06:18:25.535Z,3.28
2024-01-03T06:20:53.753Z,3.06
2024-01-03T06:23:27.320Z,3.15
2024-01-03T06:25:55.283Z,3.01
2024-01-03T06:28:26.002Z,3.11
2024-01-03T06:30:53.840Z,3.21
2024-01-03T06:33:27.236Z,3.27
2024-01-03T06:35:55.060Z,3.46
2024-01-03T06:38:25.544Z,3.48
2024-01-03T06:40:56.388Z,3.47
2024-01-03T06:43:27.117Z,3.54
2024-01-03T06:45:55.233Z,3.45
2024-01-03T06:48:26.052Z,3.62
2024-01-03T06:50:57.217Z,3.57
2024-01-03T06:53:30.764Z,3.56
2024-01-03T06:56:01.135Z,3.51
2024-01-03T06:58:36.926Z,3.51
2024-01-03T07:01:07.301Z,3.43
2024-01-03T07:03:34.612Z,3.57
2024-01-03T07:06:03.255Z,3.64
2024-01-03T07:08:33.654Z,3.64
2024-01-03T07:11:03.740Z,3.84
2024-01-03T07:13:33.384Z,3.70
2024-01-03T07:16:01.104Z,3.76
2024-01-03T07:18:31.777Z,3.74
2024-01-03T07:20:59.123Z,3.71
2024-01-03T07:23:26.793Z,3.68
2024-01-03T07:25:54.145Z,3.62
2024-01-03T07:28:32.826Z,3.80
2024-01-03T07:31:03.744Z,3.64
2024-01-03T07:33:37.856Z,3.73
2024-01-03T07:36:08.273Z,3.87
2024-01-03T07:38:38.632Z,4.01
2024-01-03T07:41:06.244Z,4.22
2024-01-03T07:43:33.478Z,4.26
2024-01-03T07:46:07.852Z,4.22
2024-01-03T07:48:42.007Z,4.22
2024-01-03T07:51:15.258Z,4.24
2024-01-03T07:53:42.568Z,4.20
2024-01-03T07:56:09.951Z,4.01
2024-01-03T07:58:40.365Z,4.11
2024-01-03T08:01:13.322Z,4.16
2024-01-03T08:03:46.445Z,4.15
2024-01-03T08:06:21.371Z,4.03
2024-01-03T08:08:56.538Z,3.95
2024-01-03T08:11:25.015Z,3.91
2024-01-03T08:13:55.144Z,3.88
2024-01-03T08:16:22.281Z,3.77
2024-01-03T08:18:49.739Z,3.93
2024-01-03T08:21:17.035Z,3.65
2024-01-03T08:23:44.664Z,3.54
2024-01-03T08:26:12.272Z,3.76
2024-01-03T08:28:40.457Z,3.69
2024-01-03T08:31:17.116Z,3.83
2024-01-03T08:33:51.181Z,3.89
2024-01-03T08:36:21.852Z,3.96
2024-01-03T08:38:48.931Z,3.92
2024-01-03T08:41:17.325Z,3.91
2024-01-03T08:43:45.064Z,3.97
2024-01-03T08:46:12.295Z,4.01
2024-01-03T08:48:42.959Z,4.15
2024-01-03T08:51:13.694Z,4.30
2024-01-03T08:53:43.779Z,4.49
2024-01-03T08:56:18.161Z,4.54
2024-01-03T08:58:46.254Z,4.58
2024-01-03T09:01:17.623Z,4.66
2024-01-03T09:03:45.851Z,4.77
2024-01-03T09:06:20.318Z,4.72
2024-01-03T09:08:48.537Z,4.76
2024-01-03T09:11:15.709Z,4.88
2024-01-03T09:13:47.328Z,4.85
2024-01-03T09:16:23.460Z,4.84
2024-01-03T09:18:50.934Z,4.71
2024-01-03T09:21:18.285Z,4.76
2024-01-03T09:23:45.429Z,4.80
2024-01-03T09:26:12.662Z,4.74
2024-01-03T09:28:39.898Z,4.85
2024-01-03T09:31:10.542Z,4.91
2024-01-03T09:33:38.265Z,4.90
2024-01-03T09:36:08.747Z,4.83
2024-01-03T09:38:41.760Z,4.79
2024-01-03T09:41:15.872Z,4.85
2024-01-03T09:43:46.993Z,4.92
2024-01-03T09:46:20.386Z,4.82
2024-01-03T09:48:57.399Z,4.72
2024-01-03T09:51:28.121Z,4.87
2024-01-03T09:53:57.920Z,4.93
2024-01-03T09:56:29.009Z,4.87
2024-01-03T09:59:02.760Z,4.81
2024-01-03T10:01:36.888Z,4.93
2024-01-03T10:04:10.576Z,4.96
2024-01-03T10:06:57.184Z,5.12
2024-01-03T10:09:43.565Z,4.94
2024-01-03T10:12:20.230Z,4.90
2024-01-03T10:14:50.606Z,4.97
2024-01-03T10:17:24.275Z,5.01
2024-01-03T10:19:52.415Z,5.06
2024-01-03T10:22:23.415Z,4.94
2024-01-03T10:24:56.514Z,4.97
2024-01-03T10:27:27.455Z,5.34
2024-01-03T10:29:56.916Z,5.45
2024-01-03T10:32:24.251Z,5.43
2024-01-03T10:34:51.563Z,5.20
2024-01-03T10:37:18.964Z,5.32
2024-01-03T10:39:46.762Z,5.49
2024-01-03T10:42:14.066Z,5.43
2024-01-03T10:44:42.354Z,5.44
2024-01-03T10:47:09.855Z,5.70
2024-01-03T10:49:37.028Z,5.78
2024-01-03T10:52:07.318Z,5.96
2024-01-03T10:54:40.103Z,6.04
2024-01-03T10:57:15.824Z,6.14
2024-01-03T10:59:57.155Z,6.26
2024-01-03T11:02:43.335Z,6.20
2024-01-03T11:05:22.142Z,6.20
2024-01-03T11:07:52.023Z,6.29
2024-01-03T11:10:37.801Z,6.48
2024-01-03T11:13:24.866Z,6.75
2024-01-03T11:15:52.191Z,6.97
2024-01-03T11:18:41.622Z,7.18
2024-01-03T11:21:25.653Z,7.08
2024-01-03T11:23:53.130Z,7.18
2024-01-03T11:26:22.572Z,7.06
2024-01-03T11:28:52.051Z,7.06
2024-01-03T11:31:47.706Z,7.03
2024-01-03T11:34:33.766Z,7.10
2024-01-03T11:37:01.004Z,6.88
2024-01-03T11:39:35.672Z,7.03
2024-01-03T11:42:03.505Z,7.01
2024-01-03T11:44:32.311Z,7.27
2024-01-03T11:47:02.508Z,9.48
2024-01-03T11:49:30.894Z,9.98
2024-01-03T11:51:58.599Z,11.39
2024-01-03T11:54:26.117Z,10.70
2024-01-03T11:56:53.445Z,10.60
2024-01-03T11:59:26.572Z,9.66
2024-01-03T12:02:02.175Z,8.95
2024-01-03T12:04:29.376Z,8.71
2024-01-03T12:06:57.983Z,8.52
2024-01-03T12:09:25.882Z,8.31
2024-01-03T12:11:53.622Z,8.47
2024-01-03T12:14:20.781Z,8.54
2024-01-03T12:16:48.372Z,8.54
2024-01-03T12:19:29.132Z,8.39
2024-01-03T12:22:02.930Z,8.19
2024-01-03T12:24:43.350Z,8.21
2024-01-03T12:27:11.202Z,8.30
2024-01-03T12:29:45.114Z,8.26
2024-01-03T12:32:13.244Z,8.35
2024-01-03T12:34:48.318Z,8.19
2024-01-03T12:37:15.978Z,8.25
2024-01-03T12:39:43.377Z,9.34
2024-01-03T12:42:16.518Z,9.70
2024-01-03T12:44:46.237Z,8.88
2024-01-03T12:47:16.000Z,8.61
2024-01-03T12:49:46.114Z,8.55
2024-01-03T12:52:25.622Z,8.42
2024-01-03T12:54:52.700Z,8.39
2024-01-03T12:57:22.988Z,8.40
2024-01-03T12:59:50.436Z,8.43
2024-01-03T13:02:18.310Z,8.54
2024-01-03T13:04:45.841Z,8.27
2024-01-03T13:07:18.981Z,8.34
2024-01-03T13:09:49.382Z,8.20
2024-01-03T13:12:16.420Z,8.25
2024-01-03T13:14:44.692Z,8.30
2024-01-03T13:17:11.832Z,8.09
2024-01-03T13:19:39.070Z,8.39
2024-01-03T13:22:06.934Z,8.51
2024-01-03T13:24:34.229Z,8.42
2024-01-03T13:27:04.372Z,8.47
2024-01-03T13:29:31.523Z,8.46
2024-01-03T13:31:58.863Z,8.66
2024-01-03T13:34:28.455Z,8.56
2024-01-03T13:36:55.758Z,8.44
2024-01-03T13:39:29.246Z,8.52
2024-01-03T13:42:06.955Z,8.61
2024-01-03T13:44:34.170Z,8.71
2024-01-03T13:47:07.029Z,8.98
2024-01-03T13:49:34.289Z,9.03
2024-01-03T13:52:03.615Z,9.03
2024-01-03T13:54:30.785Z,9.09
2024-01-03T13:56:58.235Z,9.03
2024-01-03T13:59:28.536Z,9.14
2024-01-03T14:01:55.746Z,9.16
2024-01-03T14:04:32.545Z,9.25
2024-01-03T14:07:03.229Z,9.23
2024-01-03T14:09:39.625Z,9.17
2024-01-03T14:12:23.663Z,9.37
2024-01-03T14:14:57.498Z,9.39
2024-01-03T14:17:27.784Z,9.40
2024-01-03T14:19:55.062Z,9.40
2024-01-03T14:22:22.424Z,9.45
2024-01-03T14:24:49.618Z,9.56
2024-01-03T14:27:16.783Z,9.45
2024-01-03T14:29:44.280Z,9.54
2024-01-03T14:32:14.483Z,9.57
2024-01-03T14:34:41.892Z,9.75
2024-01-03T14:37:09.759Z,9.66
2024-01-03T14:39:40.996Z,9.47
2024-01-03T14:42:08.901Z,9.62
2024-01-03T14:44:38.049Z,9.50
2024-01-03T14:47:05.852Z,9.55
2024-01-03T14:49:34.255Z,9.63
2024-01-03T14:52:01.408Z,9.52
2024-01-03T14:54:29.262Z,9.42
2024-01-03T14:56:56.431Z,9.36
2024-01-03T14:59:26.759Z,9.40
2024-01-03T15:01:56.805Z,9.47
2024-01-03T15:04:23.997Z,9.48
2024-01-03T15:07:00.548Z,9.38
2024-01-03T15:09:27.985Z,9.29
2024-01-03T15:12:01.159Z,9.32
2024-01-03T15:14:30.558Z,9.22
2024-01-03T15:16:57.671Z,9.24
2024-01-03T15:19:25.004Z,9.23
2024-01-03T15:22:02.319Z,9.24
2024-01-03T15:24:29.522Z,9.27
2024-01-03T15:27:02.715Z,9.04
2024-01-03T15:29:33.048Z,9.04
2024-01-03T15:32:07.260Z,9.13
2024-01-03T15:34:43.592Z,9.23
2024-01-03T15:37:12.481Z,8.95
2024-01-03T15:39:42.860Z,8.89
2024-01-03T15:42:10.837Z,8.90
2024-01-03T15:44:39.280Z,8.91
2024-01-03T15:47:08.211Z,8.97
2024-01-03T15:49:47.849Z,9.02
2024-01-03T15:52:15.038Z,9.67
2024-01-03T15:54:47.691Z,9.37
2024-01-03T16:00:09.471Z,9.46
2024-01-03T16:02:46.221Z,9.48
2024-01-03T16:05:18.188Z,9.38
2024-01-03T16:07:45.877Z,9.48
2024-01-03T16:10:13.003Z,9.44
2024-01-03T16:12:40.223Z,9.50
2024-01-03T16:15:11.020Z,9.37
2024-01-03T16:17:41.249Z,9.28
2024-01-03T16:20:13.579Z,9.21
2024-01-03T16:22:40.719Z,9.29
2024-01-03T16:25:07.994Z,9.31
2024-01-03T16:27:35.173Z,9.37
2024-01-03T16:30:02.341Z,9.28
2024-01-03T16:32:29.700Z,9.24
2024-01-03T16:34:57.374Z,9.28
2024-01-03T16:37:24.457Z,9.38
2024-01-03T16:39:51.590Z,9.42
2024-01-03T16:42:18.699Z,9.41
2024-01-03T16:44:45.894Z,9.40
2024-01-03T16:47:13.071Z,9.45
2024-01-03T16:49:40.590Z,9.39
2024-01-03T16:52:07.822Z,9.45
2024-01-03T16:54:34.919Z,9.55
2024-01-03T16:57:02.050Z,9.72
2024-01-03T16:59:29.238Z,9.67
2024-01-03T17:01:56.308Z,9.63
2024-01-03T17:04:23.744Z,9.71
2024-01-03T17:06:50.975Z,9.64
2024-01-03T17:09:18.439Z,9.64
2024-01-03T17:11:46.208Z,9.66
2024-01-03T17:14:13.535Z,9.64
2024-01-03T17:16:40.833Z,9.63
2024-01-03T17:19:08.092Z,9.70
2024-01-03T17:21:35.498Z,9.57
2024-01-03T17:24:02.690Z,9.66
2024-01-03T17:26:33.112Z,9.63
2024-01-03T17:29:00.785Z,9.69
2024-01-03T17:31:30.523Z,9.70
2024-01-03T17:33:57.752Z,9.84
2024-01-03T17:36:28.870Z,9.77
2024-01-03T17:39:01.447Z,9.70
2024-01-03T17:41:28.692Z,9.66
2024-01-03T17:43:56.009Z,9.84
2024-01-03T17:46:25.690Z,9.78
2024-01-03T17:48:58.295Z,9.82
2024-01-03T17:51:39.707Z,9.83
2024-01-03T17:56:48.360Z,9.92
2024-01-03T17:59:15.588Z,9.87
2024-01-03T18:01:46.044Z,9.92
2024-01-03T18:04:13.754Z,9.97
2024-01-03T18:06:41.443Z,9.99
2024-01-03T18:09:08.732Z,10.04
2024-01-03T18:11:39.280Z,10.01
2024-01-03T18:14:06.394Z,10.22
2024-01-03T18:16:33.527Z,10.08
2024-01-03T18:19:00.918Z,10.07
2024-01-03T18:21:30.919Z,9.99
2024-01-03T18:24:01.339Z,10.29
2024-01-03T18:26:28.485Z,10.03
2024-01-03T18:28:58.789Z,10.13
2024-01-03T18:31:27.599Z,9.99
2024-01-03T18:33:56.829Z,10.02
2024-01-03T18:36:26.706Z,10.14
2024-01-03T18:38:54.402Z,10.11
2024-01-03T18:41:21.565Z,9.96
2024-01-03T18:43:49.092Z,9.94
2024-01-03T18:46:18.117Z,9.94
2024-01-03T18:48:51.597Z,10.01
2024-01-03T18:51:19.740Z,9.94
2024-01-03T18:53:46.956Z,10.05
2024-01-03T18:56:16.831Z,9.97
2024-01-03T18:58:44.037Z,10.17
2024-01-03T19:01:18.046Z,10.00
2024-01-03T19:03:48.155Z,10.07
2024-01-03T19:06:15.435Z,10.05
2024-01-03T19:08:45.535Z,10.05
2024-01-03T19:11:12.633Z,10.04
2024-01-03T19:13:40.267Z,10.25
2024-01-03T19:16:07.905Z,10.12
2024-01-03T19:18:39.092Z,10.01
2024-01-03T19:21:09.832Z,9.92
2024-01-03T19:23:36.930Z,10.18
2024-01-03T19:26:04.078Z,10.13
2024-01-03T19:28:31.243Z,10.26
2024-01-03T19:31:00.405Z,10.07
2024-01-03T19:33:27.843Z,10.09
2024-01-03T19:35:57.602Z,10.12
2024-01-03T19:38:24.801Z,10.18
2024-01-03T19:40:52.276Z,10.06
2024-01-03T19:43:19.319Z,10.28
2024-01-03T19:45:46.410Z,10.17
2024-01-03T19:48:17.855Z,10.23
2024-01-03T19:50:45.214Z,10.33
2024-01-03T19:53:15.072Z,10.52
2024-01-03T19:55:42.174Z,10.22
2024-01-03T19:58:09.451Z,10.15
2024-01-03T20:00:36.651Z,10.04
2024-01-03T20:03:04.895Z,10.09
2024-01-03T20:05:32.149Z,10.12
2024-01-03T20:07:59.215Z,9.96
2024-01-03T20:10:26.326Z,10.04
2024-01-03T20:12:54.500Z,9.98
2024-01-03T20:15:21.726Z,10.06
2024-01-03T20:17:49.027Z,9.88
2024-01-03T20:20:16.266Z,9.85
2024-01-03T20:22:43.537Z,9.75
2024-01-03T20:25:10.818Z,9.71
2024-01-03T20:27:41.378Z,9.67
2024-01-03T20:30:11.589Z,9.56
2024-01-03T20:32:39.808Z,9.51
2024-01-03T20:35:07.842Z,9.42
2024-01-03T20:37:38.493Z,9.43
2024-01-03T20:40:06.080Z,9.32
2024-01-03T20:42:35.744Z,9.35
2024-01-03T20:45:06.507Z,9.49
2024-01-03T20:47:33.636Z,9.55
2024-01-03T20:50:01.216Z,9.49
2024-01-03T20:52:28.538Z,9.49
2024-01-03T20:54:55.793Z,9.48
2024-01-03T20:57:22.887Z,9.56
2024-01-03T20:59:50.027Z,9.50
2024-01-03T21:02:17.518Z,9.42
2024-01-03T21:04:44.884Z,9.58
2024-01-03T21:07:14.827Z,9.49
2024-01-03T21:09:41.936Z,9.43
2024-01-03T21:12:09.263Z,9.34
2024-01-03T21:14:36.423Z,9.50
2024-01-03T21:17:04.039Z,9.43
2024-01-03T21:19:31.625Z,9.38
2024-01-03T21:21:58.920Z,9.35
2024-01-03T21:24:26.006Z,9.58
2024-01-03T21:26:53.128Z,9.49
2024-01-03T21:29:29.356Z,9.35
2024-01-03T21:32:01.813Z,9.52
2024-01-03T21:34:28.963Z,9.80
2024-01-03T21:36:56.338Z,9.63
2024-01-03T21:39:23.775Z,9.37
2024-01-03T21:41:51.012Z,9.42
2024-01-03T21:44:18.320Z,9.46
2024-01-03T21:46:45.545Z,9.37
2024-01-03T21:49:12.829Z,9.52
2024-01-03T21:51:43.038Z,9.45
2024-01-03T21:54:10.397Z,9.62
2024-01-03T21:56:38.411Z,9.65
2024-01-03T21:59:05.858Z,9.70
2024-01-03T22:01:33.006Z,9.61
2024-01-03T22:04:09.259Z,9.81
2024-01-03T22:06:36.476Z,9.41
2024-01-03T22:09:03.941Z,9.38
2024-01-03T22:11:31.237Z,9.29
2024-01-03T22:13:58.335Z,9.31
2024-01-03T22:16:25.633Z,9.34
2024-01-03T22:18:53.030Z,9.27
2024-01-03T22:21:20.583Z,9.20
2024-01-03T22:23:47.820Z,9.27
2024-01-03T22:26:15.129Z,9.20
2024-01-03T22:28:44.742Z,9.09
2024-01-03T22:31:15.042Z,9.00
2024-01-03T22:33:43.752Z,8.97
2024-01-03T22:36:15.892Z,9.01
2024-01-03T22:38:43.161Z,8.92
2024-01-03T22:41:10.389Z,8.91
2024-01-03T22:43:37.666Z,8.76
2024-01-03T22:46:04.734Z,8.71
2024-01-03T22:48:32.244Z,8.74
2024-01-03T22:51:00.831Z,8.70
2024-01-03T22:53:28.287Z,8.66
2024-01-03T22:55:56.271Z,8.60
2024-01-03T22:58:23.378Z,8.61
2024-01-03T23:00:59.509Z,8.61
2024-01-03T23:03:26.770Z,8.57
2024-01-03T23:05:53.948Z,8.55
2024-01-03T23:08:23.841Z,8.50
2024-01-03T23:10:50.988Z,8.43
2024-01-03T23:13:21.380Z,8.30
2024-01-03T23:15:48.577Z,8.33
2024-01-03T23:18:15.779Z,8.22
2024-01-03T23:20:43.260Z,8.26
2024-01-03T23:23:11.101Z,8.33
2024-01-03T23:25:38.627Z,8.28
2024-01-03T23:28:05.743Z,8.32
2024-01-03T23:30:36.319Z,8.18
2024-01-03T23:33:03.581Z,8.13
2024-01-03T23:35:30.885Z,8.10
2024-01-03T23:37:58.046Z,8.09
2024-01-03T23:40:25.150Z,7.85
2024-01-03T23:42:52.209Z,7.82
2024-01-03T23:45:19.586Z,7.88
2024-01-03T23:47:46.818Z,7.66
2024-01-03T23:50:14.038Z,7.56
2024-01-03T23:52:41.107Z,7.55
2024-01-03T23:55:09.121Z,7.63
2024-01-03T23:57:36.221Z,7.53
